Time;durP1;ratioP1;P1;durP2;ratioP2;P2;SDS_P1;SDS_P2;PMS_P1;PMS_P2;Temp;Humidity;BMP_temperature;BMP_pressure;BME280_temperature;BME280_humidity;BME280_pressure;Samples;Min_cycle;Max_cycle;Signal;HPM_P1;HPM_P2
2022/07/03 00:01:20;;;;;;;0.22;0.22;;;;;;;8.85;100.00;99954.56;7394298;19;20018;-83
2022/07/03 00:03:46;;;;;;;0.28;0.20;;;;;;;8.84;100.00;99953.00;7395601;19;20468;-82
2022/07/03 00:06:12;;;;;;;0.55;0.38;;;;;;;8.80;100.00;99962.69;7396372;19;20527;-83
2022/07/03 00:08:39;;;;;;;1.80;0.80;;;;;;;8.78;100.00;99957.63;7395844;19;20014;-82
2022/07/03 00:11:06;;;;;;;0.43;0.43;;;;;;;8.72;100.00;99959.47;7396635;19;20014;-83
2022/07/03 00:13:32;;;;;;;0.50;0.50;;;;;;;8.69;100.00;99971.47;7396727;19;20015;-82
2022/07/03 00:15:58;;;;;;;0.60;0.38;;;;;;;8.65;100.00;99975.63;7395389;19;20042;-83
2022/07/03 00:18:24;;;;;;;0.52;0.52;;;;;;;8.61;100.00;99970.25;7395134;19;20359;-82
2022/07/03 00:21:02;;;;;;;0.88;0.80;;;;;;;8.61;100.00;99975.78;7395803;19;20015;-83
2022/07/03 00:23:44;;;;;;;0.80;0.80;;;;;;;8.58;100.00;99976.69;7396139;19;20018;-83
2022/07/03 00:26:12;;;;;;;0.30;0.30;;;;;;;8.55;100.00;99972.09;7394635;19;20030;-83
2022/07/03 00:28:40;;;;;;;0.63;0.40;;;;;;;8.57;100.00;99974.38;7395225;19;20027;-83
2022/07/03 00:31:07;;;;;;;2.92;1.17;;;;;;;8.53;100.00;99979.31;7395435;19;20014;-83
2022/07/03 00:33:34;;;;;;;0.95;0.50;;;;;;;8.48;100.00;99974.34;7395869;19;20018;-83
2022/07/03 00:36:02;;;;;;;0.65;0.63;;;;;;;8.44;100.00;99971.75;7394152;19;20022;-82
2022/07/03 00:38:28;;;;;;;0.43;0.43;;;;;;;8.41;100.00;99972.63;7397140;19;20079;-83
2022/07/03 00:40:55;;;;;;;0.80;0.52;;;;;;;8.42;100.00;99973.41;7393496;19;20006;-83
2022/07/03 00:43:21;;;;;;;0.40;0.40;;;;;;;8.37;100.00;99970.03;7394267;19;20023;-83
2022/07/03 00:45:50;;;;;;;1.25;0.30;;;;;;;8.34;100.00;99973.69;7394135;19;20007;-83
2022/07/03 00:48:18;;;;;;;0.25;0.25;;;;;;;8.31;100.00;99979.41;7393997;19;20045;-83
2022/07/03 00:50:47;;;;;;;2.38;0.43;;;;;;;8.30;100.00;99978.63;7390955;19;20481;-82
2022/07/03 00:53:18;;;;;;;10.23;0.80;;;;;;;8.31;100.00;99973.84;7393827;19;20019;-83
2022/07/03 00:55:49;;;;;;;0.30;0.30;;;;;;;8.24;100.00;99979.66;7395017;19;20484;-83
2022/07/03 00:58:17;;;;;;;1.30;0.83;;;;;;;8.25;100.00;99981.19;7393283;19;20018;-83
2022/07/03 01:00:45;;;;;;;0.82;0.38;;;;;;;8.16;100.00;99976.41;7394102;19;20018;-82
2022/07/03 01:03:16;;;;;;;0.40;0.40;;;;;;;8.12;100.00;99972.97;7393636;19;20491;-82
2022/07/03 01:05:45;;;;;;;0.43;0.32;;;;;;;8.06;100.00;99974.00;7393600;19;20479;-82
2022/07/03 01:08:26;;;;;;;2.22;0.43;;;;;;;7.99;100.00;99971.53;7393559;19;20018;-82
2022/07/03 01:11:10;;;;;;;4.50;0.70;;;;;;;7.98;100.00;99972.75;7394500;19;20010;-82
2022/07/03 01:13:48;;;;;;;0.22;0.22;;;;;;;8.00;100.00;99970.28;7392991;19;20927;-83
2022/07/03 01:16:30;;;;;;;0.40;0.40;;;;;;;8.03;100.00;99972.16;7392833;19;20712;-82
2022/07/03 01:19:01;;;;;;;0.20;0.20;;;;;;;8.02;100.00;99973.38;7395784;19;20018;-83
2022/07/03 01:21:35;;;;;;;0.95;0.43;;;;;;;7.97;100.00;99971.22;7391903;19;20014;-82
2022/07/03 01:24:37;;;;;;;0.70;0.40;;;;;;;7.94;100.00;99972.13;7392510;19;20093;-83
2022/07/03 01:27:39;;;;;;;2.15;0.85;;;;;;;7.86;100.00;99971.59;7393202;19;20007;-83
2022/07/03 01:30:10;;;;;;;;;;;;;;;7.80;100.00;99976.19;7391806;19;20014;-83
2022/07/03 01:32:45;;;;;;;0.20;0.20;;;;;;;7.76;100.00;99974.78;7391869;19;19929;-83
2022/07/03 01:35:27;;;;;;;0.30;0.20;;;;;;;7.77;100.00;99970.78;7393563;19;20049;-82
2022/07/03 01:37:55;;;;;;;0.63;0.50;;;;;;;7.74;100.00;99966.16;7394417;19;20018;-83
2022/07/03 01:40:23;;;;;;;16.60;1.15;;;;;;;7.71;100.00;99967.06;7396697;19;20074;-83
2022/07/03 01:42:52;;;;;;;0.40;0.40;;;;;;;7.68;100.00;99960.44;7392304;19;20013;-83
2022/07/03 01:45:19;;;;;;;1.95;0.63;;;;;;;7.71;100.00;99967.81;7391727;19;20055;-82
2022/07/03 01:47:46;;;;;;;0.20;0.20;;;;;;;7.71;100.00;99964.28;7393787;19;20390;-83
2022/07/03 01:50:15;;;;;;;1.38;0.38;;;;;;;7.72;100.00;99960.28;7397566;19;20018;-82
2022/07/03 01:52:42;;;;;;;0.30;0.30;;;;;;;7.72;100.00;99960.28;7391804;19;20345;-82
2022/07/03 01:55:09;;;;;;;0.35;0.35;;;;;;;7.71;100.00;99947.66;7393094;19;20091;-82
2022/07/03 01:57:46;;;;;;;1.95;0.55;;;;;;;7.64;100.00;99955.00;7391417;19;20026;-83
2022/07/03 02:00:17;;;;;;;0.30;0.30;;;;;;;7.61;100.00;99960.69;7394751;19;20037;-82
2022/07/03 02:02:59;;;;;;;0.93;0.90;;;;;;;7.57;100.00;99955.28;7391110;19;20038;-83
2022/07/03 02:05:35;;;;;;;0.30;0.30;;;;;;;7.55;100.00;99957.75;7393419;19;20025;-83
2022/07/03 02:08:14;;;;;;;0.90;0.32;;;;;;;7.51;100.00;99951.53;7391221;19;20019;-82
2022/07/03 02:10:58;;;;;;;1.75;0.40;;;;;;;7.49;100.00;99956.75;7391273;19;20015;-83
2022/07/03 02:13:27;;;;;;;0.28;0.25;;;;;;;7.43;100.00;99955.78;7392031;19;20405;-82
2022/07/03 02:15:58;;;;;;;2.75;0.40;;;;;;;7.38;100.00;99961.94;7389709;19;20023;-82
2022/07/03 02:18:24;;;;;;;0.63;0.50;;;;;;;7.33;100.00;99951.44;7392135;19;20406;-83
2022/07/03 02:21:04;;;;;;;0.35;0.35;;;;;;;7.33;100.00;99945.09;7390723;19;20558;-82
2022/07/03 02:23:33;;;;;;;0.60;0.60;;;;;;;7.33;100.00;99947.88;7392502;19;20026;-82
2022/07/03 02:26:04;;;;;;;0.80;0.50;;;;;;;7.36;100.00;99947.75;7390918;19;20011;-83
2022/07/03 02:28:58;;;;;;;0.50;0.50;;;;;;;7.35;100.00;99948.97;7391722;19;20007;-83
2022/07/03 02:31:27;;;;;;;0.20;0.20;;;;;;;7.39;100.00;99955.16;7391575;19;20018;-83
2022/07/03 02:33:58;;;;;;;1.20;0.85;;;;;;;7.39;100.00;99949.63;7390876;19;20022;-83
2022/07/03 02:36:28;;;;;;;1.95;0.50;;;;;;;7.35;100.00;99948.19;7390656;19;20034;-83
2022/07/03 02:38:57;;;;;;;0.63;0.40;;;;;;;7.31;100.00;99947.56;7393882;19;20428;-82
2022/07/03 02:41:29;;;;;;;0.32;0.30;;;;;;;7.25;100.00;99950.16;7389722;19;20380;-82
2022/07/03 02:44:10;;;;;;;1.20;0.80;;;;;;;7.18;100.00;99955.94;7392210;19;20019;-82
2022/07/03 02:46:58;;;;;;;0.55;0.55;;;;;;;7.16;100.00;99955.63;7392181;19;20085;-83
2022/07/03 02:49:49;;;;;;;0.30;0.30;;;;;;;7.14;100.00;99958.06;7392154;19;20477;-83
2022/07/03 02:52:28;;;;;;;3.40;1.13;;;;;;;7.12;100.00;99954.97;7390023;19;20010;-83
2022/07/03 02:54:59;;;;;;;1.73;0.40;;;;;;;7.10;100.00;99954.66;7390590;19;20018;-83
2022/07/03 02:57:37;;;;;;;0.35;0.35;;;;;;;7.08;100.00;99956.31;7388515;19;20035;-83
2022/07/03 03:00:06;;;;;;;2.75;0.75;;;;;;;7.08;100.00;99956.31;7393093;19;20090;-83
2022/07/03 03:02:44;;;;;;;0.50;0.50;;;;;;;7.06;100.00;99953.97;7388453;19;20018;-83
2022/07/03 03:05:45;;;;;;;0.30;0.30;;;;;;;7.05;100.00;99957.97;7389757;19;20085;-82
2022/07/03 03:08:19;;;;;;;0.10;0.10;;;;;;;7.03;100.00;99960.44;7391698;19;20487;-82
2022/07/03 03:10:47;;;;;;;0.20;0.20;;;;;;;6.98;100.00;99961.00;7391346;19;20275;-82
2022/07/03 03:13:16;;;;;;;0.28;0.28;;;;;;;6.97;100.00;99967.75;7393343;19;20010;-82
2022/07/03 03:16:12;;;;;;;0.50;0.50;;;;;;;6.97;100.00;99962.22;7397843;19;20042;-83
2022/07/03 03:18:43;;;;;;;3.78;0.55;;;;;;;6.98;100.00;99962.97;7398907;19;20014;-83
2022/07/03 03:21:10;;;;;;;0.20;0.20;;;;;;;6.96;100.00;99962.66;7395180;19;20042;-83
2022/07/03 03:23:48;;;;;;;1.15;0.90;;;;;;;6.97;100.00;99965.00;7397416;19;20086;-83
2022/07/03 03:26:25;;;;;;;0.88;0.57;;;;;;;6.95;100.00;99970.22;7396067;19;20038;-83
2022/07/03 03:28:52;;;;;;;0.68;0.40;;;;;;;6.96;100.00;99977.28;7398850;19;20093;-83
2022/07/03 03:31:19;;;;;;;0.22;0.22;;;;;;;6.94;100.00;99974.19;7394745;19;20499;-82
2022/07/03 03:33:48;;;;;;;0.40;0.40;;;;;;;6.94;100.00;99968.66;7398263;19;20465;-83
2022/07/03 03:36:17;;;;;;;1.55;0.30;;;;;;;6.96;100.00;99977.28;7396714;19;20021;-83
2022/07/03 03:38:45;;;;;;;0.50;0.40;;;;;;;7.02;100.00;99981.00;7401321;19;20464;-83
2022/07/03 03:41:11;;;;;;;0.90;0.55;;;;;;;7.04;100.00;99973.03;7396955;19;20033;-83
2022/07/03 03:43:38;;;;;;;0.57;0.30;;;;;;;7.04;100.00;99984.09;7395704;19;20022;-83
2022/07/03 03:46:04;;;;;;;0.80;0.80;;;;;;;7.00;100.00;99972.38;7395834;19;20087;-83
2022/07/03 03:48:33;;;;;;;0.30;0.30;;;;;;;6.97;100.00;99980.81;7396189;19;20031;-83
2022/07/03 03:51:01;;;;;;;0.40;0.40;;;;;;;6.91;100.00;99979.84;7397381;19;20022;-83
2022/07/03 03:53:28;;;;;;;0.32;0.32;;;;;;;6.85;100.00;99977.66;7397606;19;20026;-83
2022/07/03 03:56:01;;;;;;;0.73;0.73;;;;;;;6.82;100.00;99983.31;7394795;19;20011;-82
2022/07/03 03:58:29;;;;;;;0.52;0.30;;;;;;;6.86;100.00;99984.72;7397954;19;20023;-82
2022/07/03 04:00:57;;;;;;;0.30;0.30;;;;;;;6.97;100.00;99997.44;7394702;19;20020;-83
2022/07/03 04:03:24;;;;;;;0.90;0.65;;;;;;;7.12;100.00;99993.75;7395754;19;20031;-83
2022/07/03 04:05:51;;;;;;;0.60;0.60;;;;;;;7.26;100.00;99993.22;7397266;19;20021;-83
2022/07/03 04:08:17;;;;;;;1.30;0.77;;;;;;;7.40;100.00;99989.19;7397440;19;20022;-83
2022/07/03 04:10:43;;;;;;;6.05;0.60;;;;;;;7.55;100.00;99995.75;7396272;19;20024;-83
2022/07/03 04:13:10;;;;;;;0.38;0.38;;;;;;;7.67;100.00;99991.38;7395397;19;20356;-82
2022/07/03 04:15:36;;;;;;;0.20;0.20;;;;;;;7.75;100.00;99998.19;7395890;19;20290;-83
2022/07/03 04:18:02;;;;;;;0.40;0.40;;;;;;;7.86;100.00;100004.13;7396201;19;20022;-82
2022/07/03 04:20:30;;;;;;;2.35;0.50;;;;;;;7.95;100.00;100001.41;7401683;19;20018;-83
2022/07/03 04:22:59;;;;;;;0.68;0.68;;;;;;;8.06;100.00;100008.06;7394320;19;20022;-83
2022/07/03 04:25:26;;;;;;;0.50;0.40;;;;;;;8.17;100.00;99996.56;7394753;19;20020;-83
2022/07/03 04:27:52;;;;;;;0.30;0.30;;;;;;;8.22;100.00;99998.75;7395707;19;20468;-82
2022/07/03 04:30:18;;;;;;;0.17;0.17;;;;;;;8.24;100.00;100001.84;7398361;19;20014;-83
2022/07/03 04:32:46;;;;;;;0.20;0.20;;;;;;;8.28;100.00;99996.94;7393511;19;20021;-83
2022/07/03 04:35:12;;;;;;;1.75;0.57;;;;;;;8.33;100.00;99999.91;7394630;19;20014;-83
2022/07/03 04:37:38;;;;;;;0.45;0.17;;;;;;;8.40;100.00;100001.63;7394674;19;20022;-83
2022/07/03 04:40:05;;;;;;;1.75;0.43;;;;;;;8.50;100.00;100007.97;7396874;19;20030;-83
2022/07/03 04:42:31;;;;;;;2.70;0.40;;;;;;;8.59;100.00;100000.47;7393858;19;20020;-82
2022/07/03 04:44:57;;;;;;;0.75;0.32;;;;;;;8.71;100.00;100009.88;7395906;19;20018;-83
2022/07/03 04:47:24;;;;;;;0.65;0.38;;;;;;;8.81;100.00;100012.25;7395760;19;20014;-83
2022/07/03 04:49:50;;;;;;;5.15;0.60;;;;;;;8.89;100.00;100013.50;7398382;19;20367;-83
2022/07/03 04:52:17;;;;;;;0.20;0.20;;;;;;;8.99;100.00;100017.03;7392345;19;20011;-83
2022/07/03 04:54:43;;;;;;;0.30;0.30;;;;;;;9.08;100.00;100017.84;7393700;19;20018;-83
2022/07/03 04:57:09;;;;;;;2.78;0.45;;;;;;;9.18;100.00;100016.59;7393004;19;20392;-83
2022/07/03 04:59:36;;;;;;;1.15;0.60;;;;;;;9.23;100.00;100015.22;7396429;19;20024;-82
2022/07/03 05:02:02;;;;;;;0.68;0.60;;;;;;;9.31;100.00;100024.03;7392780;19;20018;-82
2022/07/03 05:04:28;;;;;;;0.43;0.43;;;;;;;9.39;100.00;100022.47;7394048;19;20089;-82
2022/07/03 05:06:55;;;;;;;0.20;0.20;;;;;;;9.45;100.00;100026.97;7394067;19;20011;-83
2022/07/03 05:09:21;;;;;;;0.60;0.57;;;;;;;9.56;100.00;100018.16;7394281;19;20011;-83
2022/07/03 05:11:47;;;;;;;0.68;0.68;;;;;;;9.65;100.00;100024.47;7393315;19;20078;-82
2022/07/03 05:14:13;;;;;;;0.17;0.17;;;;;;;9.71;100.00;100021.84;7392234;19;20018;-82
2022/07/03 05:16:39;;;;;;;0.40;0.40;;;;;;;9.68;100.00;100031.13;7393032;19;20376;-83
2022/07/03 05:19:05;;;;;;;1.52;0.50;;;;;;;9.78;100.00;100027.88;7394326;19;20091;-82
2022/07/03 05:21:32;;;;;;;0.50;0.50;;;;;;;9.87;100.00;100030.59;7393526;19;20014;-83
2022/07/03 05:23:58;;;;;;;0.30;0.30;;;;;;;9.94;100.00;100027.50;7394153;19;20086;-82
2022/07/03 05:26:24;;;;;;;0.30;0.30;;;;;;;10.02;100.00;100033.53;7392659;19;20467;-83
2022/07/03 05:28:50;;;;;;;0.38;0.35;;;;;;;10.11;100.00;100030.75;7395177;19;20018;-83
2022/07/03 05:31:17;;;;;;;0.85;0.82;;;;;;;10.14;100.00;100038.16;7392300;19;20018;-83
2022/07/03 05:33:43;;;;;;;0.63;0.55;;;;;;;10.18;100.00;100035.97;7393848;19;20021;-82
2022/07/03 05:36:09;;;;;;;2.00;0.77;;;;;;;10.23;100.00;100029.00;7389627;19;20022;-83
2022/07/03 05:41:20;;;;;;;2.13;0.90;;;;;;;10.38;100.00;100030.66;7392832;19;20018;-83
2022/07/03 05:43:46;;;;;;;1.15;0.75;;;;;;;10.42;100.00;100036.81;7392386;19;20356;-83
2022/07/03 05:46:12;;;;;;;1.25;1.15;;;;;;;10.44;100.00;100039.91;7394007;19;20399;-82
2022/07/03 05:48:38;;;;;;;0.43;0.30;;;;;;;10.50;100.00;100042.84;7394539;19;20489;-82
2022/07/03 05:51:04;;;;;;;2.75;0.90;;;;;;;10.54;100.00;100033.09;7392954;19;20026;-83
2022/07/03 05:53:30;;;;;;;4.13;0.55;;;;;;;10.62;100.00;100039.84;7392777;19;20031;-83
2022/07/03 05:55:58;;;;;;;5.38;1.00;;;;;;;10.70;100.00;100031.16;7392753;19;20019;-82
2022/07/03 05:58:24;;;;;;;6.95;1.27;;;;;;;10.73;100.00;100039.31;7393694;19;20027;-82
2022/07/03 06:00:50;;;;;;;8.57;0.93;;;;;;;10.83;100.00;100042.84;7391875;19;20018;-83
2022/07/03 06:03:16;;;;;;;5.97;0.70;;;;;;;10.92;100.00;100042.78;7390743;19;20022;-83
2022/07/03 06:05:43;;;;;;;2.10;1.02;;;;;;;10.97;100.00;100047.69;7391144;19;20011;-82
2022/07/03 06:08:09;;;;;;;7.00;1.75;;;;;;;11.02;100.00;100045.03;7392731;19;20002;-82
2022/07/03 06:10:35;;;;;;;1.55;0.45;;;;;;;11.10;100.00;100048.25;7391818;19;20022;-82
2022/07/03 06:13:02;;;;;;;1.48;0.95;;;;;;;11.16;100.00;100044.34;7391522;19;20010;-83
2022/07/03 06:15:28;;;;;;;7.35;1.40;;;;;;;11.23;100.00;100048.78;7391557;19;20015;-83
2022/07/03 06:17:54;;;;;;;18.20;5.13;;;;;;;11.30;100.00;100045.63;7390161;19;20038;-82
2022/07/03 06:20:20;;;;;;;8.45;2.67;;;;;;;11.35;100.00;100039.38;7395841;19;20011;-83
2022/07/03 06:22:46;;;;;;;10.25;2.58;;;;;;;11.39;100.00;100042.78;7390363;19;20022;-83
2022/07/03 06:25:12;;;;;;;8.88;1.95;;;;;;;11.43;100.00;100040.59;7390964;19;20048;-82
2022/07/03 06:27:39;;;;;;;9.20;1.98;;;;;;;11.51;100.00;100041.75;7392527;19;20013;-83
2022/07/03 06:30:06;;;;;;;5.03;3.40;;;;;;;11.59;100.00;100037.34;7394614;19;20018;-82
2022/07/03 06:32:32;;;;;;;4.80;1.40;;;;;;;11.61;100.00;100046.00;7391072;19;20018;-82
2022/07/03 06:34:58;;;;;;;6.97;1.17;;;;;;;11.66;100.00;100042.53;7392142;19;20014;-83
2022/07/03 06:37:24;;;;;;;5.68;2.50;;;;;;;11.77;100.00;100042.78;7391604;19;20118;-82
2022/07/03 06:39:50;;;;;;;7.45;3.00;;;;;;;11.93;100.00;100044.34;7395292;19;20014;-82
2022/07/03 06:42:16;;;;;;;5.32;1.88;;;;;;;12.08;100.00;100045.88;7390511;19;20028;-83
2022/07/03 06:44:46;;;;;;;6.63;2.25;;;;;;;12.23;100.00;100045.13;7391515;19;20018;-82
2022/07/03 06:47:12;;;;;;;8.48;1.60;;;;;;;12.38;100.00;100048.66;7390175;19;20122;-82
2022/07/03 06:49:39;;;;;;;4.13;0.93;;;;;;;12.50;100.00;100039.19;7400394;19;20043;-82
2022/07/03 06:52:05;;;;;;;2.95;0.88;;;;;;;12.68;100.00;100041.78;7398562;19;20021;-82
2022/07/03 06:54:31;;;;;;;4.35;0.57;;;;;;;12.84;100.00;100046.84;7399098;19;20353;-82
2022/07/03 06:56:57;;;;;;;7.97;1.25;;;;;;;13.00;100.00;100040.72;7395804;19;20010;-83
2022/07/03 06:59:23;;;;;;;3.40;0.73;;;;;;;13.12;100.00;100042.44;7401676;19;20018;-83
2022/07/03 07:01:49;;;;;;;0.95;0.63;;;;;;;13.23;100.00;100045.38;7397834;19;20038;-83
2022/07/03 07:04:15;;;;;;;2.58;0.43;;;;;;;13.36;100.00;100042.97;7398741;19;20499;-82
2022/07/03 07:06:41;;;;;;;1.63;1.02;;;;;;;13.53;100.00;100051.59;7399541;19;20034;-82
2022/07/03 07:09:08;;;;;;;2.75;0.52;;;;;;;13.63;100.00;100048.16;7399603;19;20019;-83
2022/07/03 07:11:34;;;;;;;5.57;1.15;;;;;;;13.69;100.00;100056.59;7399058;19;20026;-82
2022/07/03 07:14:00;;;;;;;2.42;0.50;;;;;;;13.76;100.00;100049.81;7399477;19;20456;-82
2022/07/03 07:16:26;;;;;;;1.70;0.85;;;;;;;13.87;100.00;100047.13;7397790;19;20011;-83
2022/07/03 07:18:52;;;;;;;1.08;0.50;;;;;;;13.97;100.00;100054.88;7399630;19;20010;-83
2022/07/03 07:21:18;;;;;;;1.30;0.52;;;;;;;13.97;100.00;100054.13;7398518;19;20022;-83
2022/07/03 07:23:44;;;;;;;1.88;0.85;;;;;;;13.93;100.00;100053.53;7397700;19;20015;-83
2022/07/03 07:26:11;;;;;;;3.78;0.85;;;;;;;13.92;100.00;100054.81;7398394;19;20011;-83
2022/07/03 07:28:37;;;;;;;4.10;0.52;;;;;;;13.94;100.00;100057.91;7397905;19;20011;-82
2022/07/03 07:31:04;;;;;;;5.10;1.10;;;;;;;14.01;100.00;100060.25;7397267;19;20018;-83
2022/07/03 07:33:30;;;;;;;3.85;1.30;;;;;;;14.22;100.00;100061.72;7398176;19;20007;-83
2022/07/03 07:35:56;;;;;;;2.30;0.60;;;;;;;14.44;100.00;100065.50;7397677;19;20014;-83
2022/07/03 07:38:22;;;;;;;4.07;1.00;;;;;;;14.65;100.00;100066.19;7401973;19;20023;-83
2022/07/03 07:40:48;;;;;;;3.75;0.75;;;;;;;14.85;100.00;100062.50;7398339;19;20019;-82
2022/07/03 07:43:14;;;;;;;0.77;0.40;;;;;;;15.06;100.00;100064.69;7394735;19;20022;-83
2022/07/03 07:45:40;;;;;;;0.75;0.68;;;;;;;15.17;100.00;100073.16;7398290;19;20043;-83
2022/07/03 07:48:07;;;;;;;1.25;0.45;;;;;;;15.35;100.00;100074.03;7398024;19;20019;-83
2022/07/03 07:50:33;;;;;;;6.63;0.95;;;;;;;15.49;100.00;100079.47;7397893;19;20483;-83
2022/07/03 07:52:59;;;;;;;1.50;0.50;;;;;;;15.65;100.00;100072.38;7394695;19;20039;-83
2022/07/03 07:55:25;;;;;;;1.65;0.30;;;;;;;15.77;100.00;100071.13;7397682;19;20031;-83
2022/07/03 07:57:51;;;;;;;2.30;1.00;;;;;;;15.83;100.00;100077.56;7396442;19;20081;-83
2022/07/03 08:00:18;;;;;;;5.03;1.08;;;;;;;16.07;100.00;100072.22;7399115;19;20014;-83
2022/07/03 08:05:37;;;;;;;2.70;1.05;;;;;;;16.45;100.00;100073.56;7398100;19;20015;-84
2022/07/03 08:08:07;;;;;;;4.93;0.90;;;;;;;16.67;100.00;100079.97;7396435;19;20045;-84
2022/07/03 08:10:44;;;;;;;2.15;0.88;;;;;;;16.77;100.00;100076.91;7396666;19;20010;-84
2022/07/03 08:13:11;;;;;;;1.23;0.75;;;;;;;16.86;100.00;100076.63;7395063;19;20015;-83
2022/07/03 08:15:38;;;;;;;1.67;0.60;;;;;;;16.94;100.00;100075.59;7395350;19;20021;-84
2022/07/03 08:18:05;;;;;;;1.30;0.40;;;;;;;16.97;100.00;100079.44;7396065;19;20025;-84
2022/07/03 08:20:32;;;;;;;3.05;0.60;;;;;;;16.80;100.00;100090.72;7401856;19;20013;-83
2022/07/03 08:22:59;;;;;;;10.43;0.75;;;;;;;16.73;100.00;100071.53;7392748;19;20014;-82
2022/07/03 08:25:25;;;;;;;1.75;1.13;;;;;;;16.84;100.00;100087.63;7396786;19;20014;-83
2022/07/03 08:27:52;;;;;;;2.17;0.93;;;;;;;16.90;100.00;100091.22;7396070;19;20014;-83
2022/07/03 08:30:19;;;;;;;1.70;0.35;;;;;;;16.97;100.00;100090.69;7401110;19;20475;-83
2022/07/03 08:32:47;;;;;;;3.30;1.10;;;;;;;17.00;100.00;100096.03;7395281;19;20078;-83
2022/07/03 08:35:13;;;;;;;5.82;1.35;;;;;;;16.90;100.00;100085.56;7394143;19;20022;-83
2022/07/03 08:37:40;;;;;;;2.28;0.93;;;;;;;16.92;100.00;100088.63;7394066;19;20013;-83
2022/07/03 08:40:08;;;;;;;1.60;0.73;;;;;;;17.03;100.00;100095.03;7396912;19;20554;-84
2022/07/03 08:42:39;;;;;;;3.22;0.43;;;;;;;17.06;100.00;100096.06;7390662;19;20045;-83
2022/07/03 08:45:14;;;;;;;1.83;0.95;;;;;;;17.03;100.00;100089.41;7394828;19;20022;-83
2022/07/03 08:47:42;;;;;;;2.70;1.00;;;;;;;17.08;100.00;100096.31;7395788;19;20018;-84
2022/07/03 08:50:12;;;;;;;1.65;1.02;;;;;;;17.03;100.00;100095.03;7397522;19;20023;-83
2022/07/03 08:52:39;;;;;;;1.88;0.93;;;;;;;17.03;100.00;100099.88;7392303;19;20018;-83
2022/07/03 08:55:06;;;;;;;3.97;1.90;;;;;;;17.12;100.00;100100.38;7395450;19;20022;-83
2022/07/03 08:57:33;;;;;;;2.75;1.33;;;;;;;17.31;100.00;100100.59;7393245;19;20488;-83
2022/07/03 09:00:03;;;;;;;5.13;2.15;;;;;;;17.42;100.00;100098.53;7399006;19;20015;-83
2022/07/03 09:02:31;;;;;;;2.78;1.65;;;;;;;17.69;100.00;100093.31;7394219;19;20018;-82
2022/07/03 09:05:04;;;;;;;5.07;2.15;;;;;;;17.96;100.00;100101.63;7393537;19;20021;-83
2022/07/03 09:07:36;;;;;;;3.67;1.92;;;;;;;17.97;100.00;100100.38;7395390;19;20025;-83
2022/07/03 09:10:08;;;;;;;5.03;1.27;;;;;;;17.78;100.00;100107.88;7396078;19;20026;-83
2022/07/03 09:12:34;;;;;;;12.10;1.58;;;;;;;17.47;100.00;100096.97;7394093;19;20007;-83
2022/07/03 09:15:03;;;;;;;3.70;1.13;;;;;;;17.14;100.00;100094.25;7394610;19;20014;-83
2022/07/03 09:17:30;;;;;;;4.95;1.15;;;;;;;16.85;100.00;100100.44;7392530;19;20035;-83
2022/07/03 09:19:59;;;;;;;3.55;1.02;;;;;;;16.60;100.00;100108.63;7397433;19;20015;-83
2022/07/03 09:22:26;;;;;;;2.67;1.00;;;;;;;16.43;100.00;100110.63;7393203;19;20019;-82
2022/07/03 09:25:02;;;;;;;6.07;0.93;;;;;;;16.20;100.00;100120.28;7393199;19;20498;-83
2022/07/03 09:27:28;;;;;;;2.47;0.85;;;;;;;16.05;100.00;100121.81;7394579;19;20369;-83
2022/07/03 09:30:03;;;;;;;2.03;0.93;;;;;;;15.87;100.00;100123.03;7396662;19;20018;-83
2022/07/03 09:32:39;;;;;;;2.33;1.33;;;;;;;15.77;100.00;100127.31;7391542;19;20027;-82
2022/07/03 09:35:11;;;;;;;1.73;0.68;;;;;;;15.77;100.00;100128.06;7394601;19;20410;-83
2022/07/03 09:37:37;;;;;;;1.42;0.80;;;;;;;15.82;100.00;100135.75;7392005;19;20021;-82
2022/07/03 09:40:05;;;;;;;2.47;0.52;;;;;;;16.01;100.00;100124.84;7398002;19;20019;-83
2022/07/03 09:42:31;;;;;;;2.90;0.90;;;;;;;16.19;100.00;100127.19;7392731;19;20022;-83
2022/07/03 09:44:57;;;;;;;1.88;0.93;;;;;;;16.44;100.00;100140.25;7393695;19;20018;-83
2022/07/03 09:47:25;;;;;;;3.92;0.65;;;;;;;16.56;100.00;100139.03;7393128;19;20010;-83
2022/07/03 09:50:04;;;;;;;4.55;0.70;;;;;;;16.61;100.00;100137.50;7396522;19;20011;-83
2022/07/03 09:52:34;;;;;;;1.77;0.73;;;;;;;16.56;100.00;100141.84;7391105;19;20014;-84
2022/07/03 09:55:20;;;;;;;1.92;0.82;;;;;;;16.40;100.00;100148.19;7392716;19;20050;-82
2022/07/03 09:57:49;;;;;;;3.55;1.35;;;;;;;16.42;100.00;100142.03;7391373;19;20019;-83
2022/07/03 10:00:24;;;;;;;2.22;0.60;;;;;;;16.59;100.00;100140.81;7396014;19;20018;-83
2022/07/03 10:03:20;;;;;;;4.10;1.13;;;;;;;16.89;100.00;100145.94;7392035;19;20029;-82
2022/07/03 10:05:46;;;;;;;1.45;0.47;;;;;;;16.99;100.00;100150.03;7392634;19;20014;-84
2022/07/03 10:08:16;;;;;;;2.67;1.05;;;;;;;17.11;100.00;100140.28;7391290;19;20308;-83
2022/07/03 10:10:44;;;;;;;0.73;0.38;;;;;;;17.21;100.00;100138.75;7391438;19;20085;-83
2022/07/03 10:13:11;;;;;;;2.75;0.63;;;;;;;17.13;100.00;100149.00;7392883;19;20050;-83
2022/07/03 10:15:39;;;;;;;3.40;1.23;;;;;;;17.08;100.00;100146.97;7392235;19;20019;-83
2022/07/03 10:18:10;;;;;;;0.63;0.40;;;;;;;17.10;100.00;100150.78;7392528;19;20015;-83
2022/07/03 10:20:43;;;;;;;0.60;0.30;;;;;;;17.13;100.00;100157.44;7393159;19;20045;-83
2022/07/03 10:23:09;;;;;;;3.60;0.20;;;;;;;17.28;100.00;100160.75;7389100;19;20014;-83
2022/07/03 10:25:40;;;;;;;0.45;0.32;;;;;;;17.44;100.00;100163.53;7392978;19;20070;-83
2022/07/03 10:28:06;;;;;;;2.67;0.75;;;;;;;17.62;100.00;100159.41;7392399;19;20364;-84
2022/07/03 10:30:34;;;;;;;0.73;0.43;;;;;;;17.86;100.00;100159.59;7396993;19;20034;-83
2022/07/03 10:33:00;;;;;;;4.43;0.68;;;;;;;18.17;100.00;100162.00;7390782;19;20472;-84
2022/07/03 10:35:33;;;;;;;3.42;0.57;;;;;;;18.33;100.00;100162.41;7392024;19;20018;-83
2022/07/03 10:38:03;;;;;;;2.50;0.52;;;;;;;18.52;100.00;100164.13;7392817;19;20018;-83
2022/07/03 10:46:14;;;;;;;0.40;0.20;;;;;;;19.61;100.00;100165.75;7392126;19;20019;-83
2022/07/03 10:49:10;;;;;;;2.45;0.20;;;;;;;19.76;100.00;100154.78;7391030;19;20543;-83
2022/07/03 10:51:48;;;;;;;0.65;0.20;;;;;;;20.08;100.00;100154.88;7389597;19;20018;-83
2022/07/03 10:54:33;;;;;;;5.40;0.20;;;;;;;19.97;100.00;100157.84;7391747;19;20014;-83
2022/07/03 10:57:00;;;;;;;1.00;0.10;;;;;;;19.73;100.00;100160.75;7389182;19;20015;-83
2022/07/03 10:59:35;;;;;;;1.35;0.47;;;;;;;19.58;100.00;100161.91;7394813;19;20014;-82
2022/07/03 11:02:27;;;;;;;0.38;0.20;;;;;;;19.09;100.00;100176.50;7390255;19;20472;-82
2022/07/03 11:04:59;;;;;;;0.68;0.10;;;;;;;18.70;100.00;100179.66;7392019;19;20019;-83
2022/07/03 11:07:29;;;;;;;2.78;0.88;;;;;;;18.32;100.00;100175.00;7390615;19;20353;-83
2022/07/03 11:10:16;;;;;;;0.68;0.47;;;;;;;17.89;100.00;100180.31;7393077;19;20011;-83
2022/07/03 11:13:07;;;;;;;0.55;0.20;;;;;;;17.65;100.00;100183.72;7388769;19;20033;-83
2022/07/03 11:15:54;;;;;;;7.68;0.60;;;;;;;17.47;100.00;100184.25;7389660;19;20011;-82
2022/07/03 11:18:23;;;;;;;2.63;1.15;;;;;;;17.47;100.00;100189.91;7389510;19;20490;-83
2022/07/03 11:20:49;;;;;;;1.25;0.30;;;;;;;17.67;100.00;100186.03;7389741;19;20007;-82
2022/07/03 11:23:30;;;;;;;0.50;0.35;;;;;;;17.95;100.00;100195.91;7387638;19;20022;-83
2022/07/03 11:26:21;;;;;;;3.65;0.63;;;;;;;18.25;100.00;100196.06;7390134;19;20045;-83
2022/07/03 11:28:52;;;;;;;1.73;0.25;;;;;;;18.61;100.00;100188.41;7389278;19;20013;-83
2022/07/03 11:31:21;;;;;;;8.25;0.40;;;;;;;18.84;100.00;100187.75;7388970;19;20021;-83
2022/07/03 11:33:58;;;;;;;0.88;0.25;;;;;;;18.92;100.00;100182.31;7392076;19;20025;-83
2022/07/03 11:36:28;;;;;;;0.25;0.17;;;;;;;18.99;100.00;100189.44;7396860;19;20017;-83
2022/07/03 11:38:55;;;;;;;0.50;0.10;;;;;;;18.89;100.00;100191.81;7399974;19;20045;-82
2022/07/03 11:41:22;;;;;;;0.95;0.20;;;;;;;18.56;100.00;100200.53;7395021;19;20014;-83
2022/07/03 11:43:53;;;;;;;0.20;0.10;;;;;;;18.15;100.00;100189.94;7397695;19;20034;-83
2022/07/03 11:46:24;;;;;;;1.48;0.32;;;;;;;17.95;100.00;100195.91;7397806;19;20025;-82
2022/07/03 11:49:13;;;;;;;0.70;0.30;;;;;;;17.87;100.00;100192.09;7397174;19;20511;-83